• °C
  • Pobieranie danych...
wx


PRINT OUT SECTION, show »

TAF EPBC 310200Z NIL=

TAF EPCE 302300Z 3100/3109 VRB02KT CAVOK BECMG 3106/3108 20008KT
PROB30 TEMPO 3100/3106 7000 MIFG NSC =

TAF EPCE 310200Z 3103/3112 VRB03KT CAVOK BECMG 3105/3107 21010KT
TEMPO 3108/3112 23015G25KT 9999 SCT035=

TAF EPDA 310200Z NIL=

TAF EPDE 310200Z NIL=

TAF EPDE 310200Z 3103/3112 VRB02KT CAVOK BECMG 3107/3109 17010KT=

TAF EPIR 310200Z NIL=

TAF EPKS 310200Z NIL=

TAF EPLK 302300Z 3100/3109 VRB02KT CAVOK
BECMG 3106/3108 25010KT=

TAF EPLK 310200Z 3103/3112 VRB02KT CAVOK
BECMG 3106/3108 25010KT
PROB30 TEMPO 3109/3112 -SHRA BKN040CB=

TAF EPLY 310200Z NIL=

TAF EPMB 302300Z 3100/3109 22006KT CAVOK BECMG 3106/3108 23012KT=

TAF EPMB 310200Z 3103/3112 22008KT CAVOK TEMPO 310/3109 SCT030=

TAF EPMI 310200Z NIL=

TAF EPMM 302300Z 3100/3109 18004KT CAVOK=

TAF EPMM 310200Z 3103/3112 18004KT CAVOK=

TAF EPNA 310200Z NIL=

TAF EPOK 302300Z 3100/3109 20008KT CAVOK PROB30 TEMPO 3108/3109
22015G25KT=

TAF EPOK 310200Z 3103/3112 20008KT CAVOK TEMPO 3108/3112 22015G25KT=

TAF EPPR 310200Z NIL=

TAF EPPW 302300Z 3100/3109 VRB03KT CAVOK=

TAF EPPW 310200Z 3103/3112 VRB03KT CAVOK BECMG 3108/3110 26012KT=

TAF EPRA 310200Z NIL=

TAF EPSN 302300Z 3100/3109 18004KT CAVOK
BECMG 3101/3104 18008KT
BECMG 3106/3109 24014KT=

TAF EPSN 310200Z 3103/3112 18008KT CAVOK
BECMG 3106/3109 24014KT
TEMPO 3108/3112 24016G30KT=

TAF EPTM 310200Z NIL=



IMGW-PIB Sites